sensor_id;sensor_type;location;lat;lon;timestamp;P1;durP1;ratioP1;P2;durP2;ratioP2
15246;SDS011;7726;48.820;9.248;2022-08-25T00:02:02;3.65;;;2.67;;
15246;SDS011;7726;48.820;9.248;2022-08-25T00:04:32;2.70;;;2.50;;
15246;SDS011;7726;48.820;9.248;2022-08-25T00:07:00;3.20;;;2.72;;
15246;SDS011;7726;48.820;9.248;2022-08-25T00:09:27;2.90;;;2.67;;
15246;SDS011;7726;48.820;9.248;2022-08-25T00:11:54;2.60;;;2.28;;
15246;SDS011;7726;48.820;9.248;2022-08-25T00:14:24;2.97;;;2.60;;
15246;SDS011;7726;48.820;9.248;2022-08-25T00:16:51;2.88;;;2.67;;
15246;SDS011;7726;48.820;9.248;2022-08-25T00:19:19;2.63;;;2.42;;
15246;SDS011;7726;48.820;9.248;2022-08-25T00:21:48;2.50;;;2.30;;
15246;SDS011;7726;48.820;9.248;2022-08-25T00:24:16;3.22;;;2.70;;
15246;SDS011;7726;48.820;9.248;2022-08-25T00:26:45;2.80;;;2.60;;
15246;SDS011;7726;48.820;9.248;2022-08-25T00:29:12;3.45;;;3.25;;
15246;SDS011;7726;48.820;9.248;2022-08-25T00:31:39;2.95;;;2.75;;
15246;SDS011;7726;48.820;9.248;2022-08-25T00:34:08;3.47;;;2.45;;
15246;SDS011;7726;48.820;9.248;2022-08-25T00:36:35;3.17;;;2.90;;
15246;SDS011;7726;48.820;9.248;2022-08-25T00:39:05;2.70;;;2.50;;
15246;SDS011;7726;48.820;9.248;2022-08-25T00:41:33;2.78;;;2.58;;
15246;SDS011;7726;48.820;9.248;2022-08-25T00:44:01;2.90;;;2.60;;
15246;SDS011;7726;48.820;9.248;2022-08-25T00:46:31;2.97;;;2.67;;
15246;SDS011;7726;48.820;9.248;2022-08-25T00:49:00;2.97;;;2.35;;
15246;SDS011;7726;48.820;9.248;2022-08-25T00:51:29;2.50;;;2.30;;
15246;SDS011;7726;48.820;9.248;2022-08-25T00:53:58;4.60;;;2.83;;
15246;SDS011;7726;48.820;9.248;2022-08-25T00:56:27;2.70;;;2.50;;
15246;SDS011;7726;48.820;9.248;2022-08-25T00:58:55;4.05;;;2.70;;
15246;SDS011;7726;48.820;9.248;2022-08-25T01:01:22;4.00;;;2.80;;
15246;SDS011;7726;48.820;9.248;2022-08-25T01:03:50;2.92;;;2.67;;
15246;SDS011;7726;48.820;9.248;2022-08-25T01:06:17;2.95;;;2.75;;
15246;SDS011;7726;48.820;9.248;2022-08-25T01:08:45;3.70;;;2.95;;
15246;SDS011;7726;48.820;9.248;2022-08-25T01:11:12;3.80;;;2.90;;
15246;SDS011;7726;48.820;9.248;2022-08-25T01:13:41;3.22;;;2.80;;
15246;SDS011;7726;48.820;9.248;2022-08-25T01:16:10;3.65;;;2.72;;
15246;SDS011;7726;48.820;9.248;2022-08-25T01:18:41;3.08;;;2.88;;
15246;SDS011;7726;48.820;9.248;2022-08-25T01:21:10;3.15;;;2.90;;
15246;SDS011;7726;48.820;9.248;2022-08-25T01:23:38;2.78;;;2.58;;
15246;SDS011;7726;48.820;9.248;2022-08-25T01:26:07;3.85;;;3.10;;
15246;SDS011;7726;48.820;9.248;2022-08-25T01:28:35;4.25;;;2.85;;
15246;SDS011;7726;48.820;9.248;2022-08-25T01:31:23;3.92;;;3.13;;
15246;SDS011;7726;48.820;9.248;2022-08-25T01:33:50;3.75;;;3.13;;
15246;SDS011;7726;48.820;9.248;2022-08-25T01:36:18;4.88;;;3.47;;
15246;SDS011;7726;48.820;9.248;2022-08-25T01:38:46;4.57;;;3.38;;
15246;SDS011;7726;48.820;9.248;2022-08-25T01:41:14;4.07;;;3.33;;
15246;SDS011;7726;48.820;9.248;2022-08-25T01:43:42;3.95;;;3.63;;
15246;SDS011;7726;48.820;9.248;2022-08-25T01:46:09;4.30;;;3.08;;
15246;SDS011;7726;48.820;9.248;2022-08-25T01:48:36;3.80;;;3.35;;
15246;SDS011;7726;48.820;9.248;2022-08-25T01:51:04;3.80;;;3.50;;
15246;SDS011;7726;48.820;9.248;2022-08-25T01:53:32;3.58;;;3.17;;
15246;SDS011;7726;48.820;9.248;2022-08-25T01:56:06;7.50;;;3.70;;
15246;SDS011;7726;48.820;9.248;2022-08-25T01:58:34;3.88;;;3.17;;
15246;SDS011;7726;48.820;9.248;2022-08-25T02:01:05;3.50;;;3.10;;
15246;SDS011;7726;48.820;9.248;2022-08-25T02:03:35;4.35;;;3.25;;
15246;SDS011;7726;48.820;9.248;2022-08-25T02:06:03;3.42;;;3.13;;
15246;SDS011;7726;48.820;9.248;2022-08-25T02:08:30;6.47;;;4.00;;
15246;SDS011;7726;48.820;9.248;2022-08-25T02:10:59;3.67;;;3.38;;
15246;SDS011;7726;48.820;9.248;2022-08-25T02:13:26;4.32;;;3.33;;
15246;SDS011;7726;48.820;9.248;2022-08-25T02:15:53;4.80;;;3.58;;
15246;SDS011;7726;48.820;9.248;2022-08-25T02:18:21;6.45;;;3.92;;
15246;SDS011;7726;48.820;9.248;2022-08-25T02:20:48;4.55;;;3.85;;
15246;SDS011;7726;48.820;9.248;2022-08-25T02:23:15;5.07;;;3.67;;
15246;SDS011;7726;48.820;9.248;2022-08-25T02:25:43;4.90;;;3.92;;
15246;SDS011;7726;48.820;9.248;2022-08-25T02:28:12;5.40;;;4.00;;
15246;SDS011;7726;48.820;9.248;2022-08-25T02:30:40;4.22;;;3.75;;
15246;SDS011;7726;48.820;9.248;2022-08-25T02:33:07;4.07;;;3.75;;
15246;SDS011;7726;48.820;9.248;2022-08-25T02:35:35;4.93;;;4.20;;
15246;SDS011;7726;48.820;9.248;2022-08-25T02:38:02;4.28;;;3.88;;
15246;SDS011;7726;48.820;9.248;2022-08-25T02:40:30;4.35;;;3.95;;
15246;SDS011;7726;48.820;9.248;2022-08-25T02:42:57;4.57;;;4.18;;
15246;SDS011;7726;48.820;9.248;2022-08-25T02:45:25;4.32;;;3.80;;
15246;SDS011;7726;48.820;9.248;2022-08-25T02:47:52;4.40;;;3.95;;
15246;SDS011;7726;48.820;9.248;2022-08-25T02:50:19;4.25;;;3.88;;
15246;SDS011;7726;48.820;9.248;2022-08-25T02:52:47;4.50;;;4.10;;
15246;SDS011;7726;48.820;9.248;2022-08-25T02:55:16;5.35;;;4.25;;
15246;SDS011;7726;48.820;9.248;2022-08-25T02:57:43;4.88;;;4.35;;
15246;SDS011;7726;48.820;9.248;2022-08-25T03:00:11;5.35;;;4.10;;
15246;SDS011;7726;48.820;9.248;2022-08-25T03:02:40;4.57;;;4.18;;
15246;SDS011;7726;48.820;9.248;2022-08-25T03:05:08;4.25;;;3.90;;
15246;SDS011;7726;48.820;9.248;2022-08-25T03:07:36;4.65;;;4.22;;
15246;SDS011;7726;48.820;9.248;2022-08-25T03:10:05;8.18;;;4.32;;
15246;SDS011;7726;48.820;9.248;2022-08-25T03:12:32;4.10;;;3.70;;
15246;SDS011;7726;48.820;9.248;2022-08-25T03:14:59;4.55;;;3.95;;
15246;SDS011;7726;48.820;9.248;2022-08-25T03:17:26;4.95;;;4.50;;
15246;SDS011;7726;48.820;9.248;2022-08-25T03:19:56;5.07;;;4.57;;
15246;SDS011;7726;48.820;9.248;2022-08-25T03:22:23;4.53;;;4.07;;
15246;SDS011;7726;48.820;9.248;2022-08-25T03:24:50;4.50;;;4.10;;
15246;SDS011;7726;48.820;9.248;2022-08-25T03:27:37;4.93;;;4.53;;
15246;SDS011;7726;48.820;9.248;2022-08-25T03:30:05;4.80;;;4.40;;
15246;SDS011;7726;48.820;9.248;2022-08-25T03:32:32;5.43;;;4.40;;
15246;SDS011;7726;48.820;9.248;2022-08-25T03:35:00;5.47;;;4.75;;
15246;SDS011;7726;48.820;9.248;2022-08-25T03:37:29;4.53;;;4.13;;
15246;SDS011;7726;48.820;9.248;2022-08-25T03:39:57;5.35;;;4.45;;
15246;SDS011;7726;48.820;9.248;2022-08-25T03:42:24;4.72;;;4.22;;
15246;SDS011;7726;48.820;9.248;2022-08-25T03:44:51;5.57;;;4.22;;
15246;SDS011;7726;48.820;9.248;2022-08-25T03:47:18;4.82;;;4.28;;
15246;SDS011;7726;48.820;9.248;2022-08-25T03:49:48;5.60;;;4.97;;
15246;SDS011;7726;48.820;9.248;2022-08-25T03:52:17;5.38;;;4.88;;
15246;SDS011;7726;48.820;9.248;2022-08-25T03:54:44;5.00;;;4.50;;
15246;SDS011;7726;48.820;9.248;2022-08-25T03:57:11;5.38;;;4.88;;
15246;SDS011;7726;48.820;9.248;2022-08-25T03:59:39;5.00;;;4.60;;
15246;SDS011;7726;48.820;9.248;2022-08-25T04:02:06;9.02;;;5.32;;
15246;SDS011;7726;48.820;9.248;2022-08-25T04:04:33;5.30;;;4.65;;
15246;SDS011;7726;48.820;9.248;2022-08-25T04:07:01;5.05;;;4.57;;
15246;SDS011;7726;48.820;9.248;2022-08-25T04:09:29;6.82;;;5.20;;
15246;SDS011;7726;48.820;9.248;2022-08-25T04:11:57;6.20;;;4.72;;
15246;SDS011;7726;48.820;9.248;2022-08-25T04:14:24;6.80;;;4.75;;
15246;SDS011;7726;48.820;9.248;2022-08-25T04:16:51;5.80;;;5.20;;
15246;SDS011;7726;48.820;9.248;2022-08-25T04:19:18;5.38;;;4.88;;
15246;SDS011;7726;48.820;9.248;2022-08-25T04:21:46;7.80;;;5.05;;
15246;SDS011;7726;48.820;9.248;2022-08-25T04:24:13;5.22;;;4.75;;
15246;SDS011;7726;48.820;9.248;2022-08-25T04:26:43;5.57;;;4.97;;
15246;SDS011;7726;48.820;9.248;2022-08-25T04:29:11;6.70;;;4.70;;
15246;SDS011;7726;48.820;9.248;2022-08-25T04:31:39;6.35;;;5.07;;
15246;SDS011;7726;48.820;9.248;2022-08-25T04:34:07;6.38;;;4.72;;
15246;SDS011;7726;48.820;9.248;2022-08-25T04:36:34;5.30;;;4.80;;
15246;SDS011;7726;48.820;9.248;2022-08-25T04:39:02;7.78;;;5.35;;
15246;SDS011;7726;48.820;9.248;2022-08-25T04:41:29;6.43;;;5.03;;
15246;SDS011;7726;48.820;9.248;2022-08-25T04:43:58;7.57;;;5.00;;
15246;SDS011;7726;48.820;9.248;2022-08-25T04:46:27;6.72;;;5.32;;
15246;SDS011;7726;48.820;9.248;2022-08-25T04:48:55;6.07;;;5.28;;
15246;SDS011;7726;48.820;9.248;2022-08-25T04:51:25;7.55;;;4.80;;
15246;SDS011;7726;48.820;9.248;2022-08-25T04:53:53;5.65;;;5.15;;
15246;SDS011;7726;48.820;9.248;2022-08-25T04:56:22;5.97;;;5.38;;
15246;SDS011;7726;48.820;9.248;2022-08-25T04:58:50;7.90;;;5.18;;
15246;SDS011;7726;48.820;9.248;2022-08-25T05:01:19;6.05;;;4.68;;
15246;SDS011;7726;48.820;9.248;2022-08-25T05:03:47;6.80;;;4.60;;
15246;SDS011;7726;48.820;9.248;2022-08-25T05:06:18;5.22;;;4.78;;
15246;SDS011;7726;48.820;9.248;2022-08-25T05:08:46;6.45;;;5.05;;
15246;SDS011;7726;48.820;9.248;2022-08-25T05:11:14;5.13;;;4.63;;
15246;SDS011;7726;48.820;9.248;2022-08-25T05:13:42;6.75;;;5.10;;
15246;SDS011;7726;48.820;9.248;2022-08-25T05:16:09;5.85;;;4.90;;
15246;SDS011;7726;48.820;9.248;2022-08-25T05:18:38;5.32;;;4.78;;
15246;SDS011;7726;48.820;9.248;2022-08-25T05:21:06;6.75;;;5.00;;
15246;SDS011;7726;48.820;9.248;2022-08-25T05:23:33;7.78;;;5.47;;
15246;SDS011;7726;48.820;9.248;2022-08-25T05:26:02;6.57;;;4.82;;
15246;SDS011;7726;48.820;9.248;2022-08-25T05:28:30;7.18;;;5.70;;
15246;SDS011;7726;48.820;9.248;2022-08-25T05:30:58;6.93;;;5.13;;
15246;SDS011;7726;48.820;9.248;2022-08-25T05:33:25;5.53;;;5.05;;
15246;SDS011;7726;48.820;9.248;2022-08-25T05:35:54;7.07;;;5.60;;
15246;SDS011;7726;48.820;9.248;2022-08-25T05:38:21;8.45;;;5.55;;
15246;SDS011;7726;48.820;9.248;2022-08-25T05:40:50;5.57;;;5.07;;
15246;SDS011;7726;48.820;9.248;2022-08-25T05:43:18;6.40;;;4.97;;
15246;SDS011;7726;48.820;9.248;2022-08-25T05:45:45;6.93;;;5.28;;
15246;SDS011;7726;48.820;9.248;2022-08-25T05:48:12;7.03;;;5.50;;
15246;SDS011;7726;48.820;9.248;2022-08-25T05:50:39;7.47;;;5.63;;
15246;SDS011;7726;48.820;9.248;2022-08-25T05:53:08;7.28;;;5.30;;
15246;SDS011;7726;48.820;9.248;2022-08-25T05:55:35;5.65;;;4.90;;
15246;SDS011;7726;48.820;9.248;2022-08-25T05:58:02;7.20;;;5.30;;
15246;SDS011;7726;48.820;9.248;2022-08-25T06:00:30;6.47;;;5.53;;
15246;SDS011;7726;48.820;9.248;2022-08-25T06:02:57;5.45;;;4.95;;
15246;SDS011;7726;48.820;9.248;2022-08-25T06:05:23;5.72;;;5.22;;
15246;SDS011;7726;48.820;9.248;2022-08-25T06:07:51;6.13;;;5.53;;
15246;SDS011;7726;48.820;9.248;2022-08-25T06:10:19;6.13;;;5.25;;
15246;SDS011;7726;48.820;9.248;2022-08-25T06:12:47;5.60;;;5.10;;
15246;SDS011;7726;48.820;9.248;2022-08-25T06:15:15;6.50;;;5.85;;
15246;SDS011;7726;48.820;9.248;2022-08-25T06:17:43;6.75;;;5.90;;
15246;SDS011;7726;48.820;9.248;2022-08-25T06:20:11;6.53;;;5.40;;
15246;SDS011;7726;48.820;9.248;2022-08-25T06:22:38;6.15;;;5.55;;
15246;SDS011;7726;48.820;9.248;2022-08-25T06:25:06;5.95;;;5.43;;
15246;SDS011;7726;48.820;9.248;2022-08-25T06:27:35;6.40;;;5.78;;
15246;SDS011;7726;48.820;9.248;2022-08-25T06:30:03;6.25;;;5.70;;
15246;SDS011;7726;48.820;9.248;2022-08-25T06:32:30;6.47;;;5.68;;
15246;SDS011;7726;48.820;9.248;2022-08-25T06:34:58;6.18;;;5.63;;
15246;SDS011;7726;48.820;9.248;2022-08-25T06:37:25;8.00;;;6.03;;
15246;SDS011;7726;48.820;9.248;2022-08-25T06:39:52;7.88;;;5.45;;
15246;SDS011;7726;48.820;9.248;2022-08-25T06:42:19;9.00;;;5.35;;
15246;SDS011;7726;48.820;9.248;2022-08-25T06:44:48;5.90;;;5.38;;
15246;SDS011;7726;48.820;9.248;2022-08-25T06:47:16;7.57;;;6.15;;
15246;SDS011;7726;48.820;9.248;2022-08-25T06:49:43;7.00;;;5.80;;
15246;SDS011;7726;48.820;9.248;2022-08-25T06:52:11;5.72;;;5.22;;
15246;SDS011;7726;48.820;9.248;2022-08-25T06:54:39;6.70;;;5.57;;
15246;SDS011;7726;48.820;9.248;2022-08-25T06:57:07;5.88;;;5.28;;
15246;SDS011;7726;48.820;9.248;2022-08-25T06:59:34;7.45;;;5.78;;
15246;SDS011;7726;48.820;9.248;2022-08-25T07:02:03;9.45;;;5.32;;
15246;SDS011;7726;48.820;9.248;2022-08-25T07:04:32;6.32;;;5.68;;
15246;SDS011;7726;48.820;9.248;2022-08-25T07:06:59;5.68;;;5.13;;
15246;SDS011;7726;48.820;9.248;2022-08-25T07:09:27;7.53;;;5.88;;
15246;SDS011;7726;48.820;9.248;2022-08-25T07:11:54;5.95;;;5.45;;
15246;SDS011;7726;48.820;9.248;2022-08-25T07:14:21;5.72;;;5.20;;
15246;SDS011;7726;48.820;9.248;2022-08-25T07:16:48;7.63;;;6.03;;
15246;SDS011;7726;48.820;9.248;2022-08-25T07:19:17;5.78;;;5.28;;
15246;SDS011;7726;48.820;9.248;2022-08-25T07:21:45;5.30;;;4.80;;
15246;SDS011;7726;48.820;9.248;2022-08-25T07:24:13;8.82;;;5.25;;
15246;SDS011;7726;48.820;9.248;2022-08-25T07:26:40;5.78;;;5.07;;
15246;SDS011;7726;48.820;9.248;2022-08-25T07:29:09;6.28;;;5.68;;
15246;SDS011;7726;48.820;9.248;2022-08-25T07:31:36;6.95;;;6.00;;
15246;SDS011;7726;48.820;9.248;2022-08-25T07:34:04;8.60;;;4.97;;
15246;SDS011;7726;48.820;9.248;2022-08-25T07:36:50;7.78;;;5.22;;
15246;SDS011;7726;48.820;9.248;2022-08-25T07:39:17;7.57;;;5.28;;
15246;SDS011;7726;48.820;9.248;2022-08-25T07:41:44;5.75;;;5.03;;
15246;SDS011;7726;48.820;9.248;2022-08-25T07:44:12;6.00;;;5.38;;
15246;SDS011;7726;48.820;9.248;2022-08-25T07:46:39;5.25;;;4.75;;
15246;SDS011;7726;48.820;9.248;2022-08-25T07:49:06;5.20;;;4.70;;
15246;SDS011;7726;48.820;9.248;2022-08-25T07:51:34;6.10;;;4.70;;
15246;SDS011;7726;48.820;9.248;2022-08-25T07:54:04;5.40;;;5.00;;
15246;SDS011;7726;48.820;9.248;2022-08-25T07:56:31;5.65;;;5.25;;
15246;SDS011;7726;48.820;9.248;2022-08-25T07:58:58;5.50;;;5.10;;
15246;SDS011;7726;48.820;9.248;2022-08-25T08:01:25;5.38;;;4.88;;
15246;SDS011;7726;48.820;9.248;2022-08-25T08:03:53;5.47;;;4.78;;
15246;SDS011;7726;48.820;9.248;2022-08-25T08:06:21;5.25;;;4.85;;
15246;SDS011;7726;48.820;9.248;2022-08-25T08:08:49;5.50;;;4.93;;
15246;SDS011;7726;48.820;9.248;2022-08-25T08:11:19;8.30;;;4.90;;
15246;SDS011;7726;48.820;9.248;2022-08-25T08:13:47;6.60;;;4.70;;
15246;SDS011;7726;48.820;9.248;2022-08-25T08:16:15;5.40;;;4.90;;
15246;SDS011;7726;48.820;9.248;2022-08-25T08:18:42;5.45;;;4.95;;
15246;SDS011;7726;48.820;9.248;2022-08-25T08:21:10;8.23;;;4.90;;
15246;SDS011;7726;48.820;9.248;2022-08-25T08:23:37;5.40;;;5.00;;
15246;SDS011;7726;48.820;9.248;2022-08-25T08:26:05;5.50;;;5.05;;
15246;SDS011;7726;48.820;9.248;2022-08-25T08:28:33;5.32;;;4.82;;
15246;SDS011;7726;48.820;9.248;2022-08-25T08:31:01;5.35;;;4.93;;
15246;SDS011;7726;48.820;9.248;2022-08-25T08:33:28;5.57;;;5.10;;
15246;SDS011;7726;48.820;9.248;2022-08-25T08:35:56;5.35;;;4.95;;
15246;SDS011;7726;48.820;9.248;2022-08-25T08:38:23;6.32;;;4.72;;
15246;SDS011;7726;48.820;9.248;2022-08-25T08:40:54;5.50;;;5.00;;
15246;SDS011;7726;48.820;9.248;2022-08-25T08:43:40;5.30;;;4.60;;
15246;SDS011;7726;48.820;9.248;2022-08-25T08:46:08;5.13;;;4.72;;
15246;SDS011;7726;48.820;9.248;2022-08-25T08:48:39;5.65;;;5.15;;
15246;SDS011;7726;48.820;9.248;2022-08-25T08:51:12;7.28;;;5.20;;
15246;SDS011;7726;48.820;9.248;2022-08-25T08:53:42;4.63;;;4.22;;
15246;SDS011;7726;48.820;9.248;2022-08-25T08:56:12;5.43;;;4.80;;
15246;SDS011;7726;48.820;9.248;2022-08-25T08:58:42;5.80;;;5.20;;
15246;SDS011;7726;48.820;9.248;2022-08-25T09:01:11;6.35;;;4.68;;
15246;SDS011;7726;48.820;9.248;2022-08-25T09:03:41;5.20;;;4.70;;
15246;SDS011;7726;48.820;9.248;2022-08-25T09:06:10;5.40;;;4.95;;
15246;SDS011;7726;48.820;9.248;2022-08-25T09:08:38;5.10;;;4.70;;
15246;SDS011;7726;48.820;9.248;2022-08-25T09:11:09;5.60;;;5.10;;
15246;SDS011;7726;48.820;9.248;2022-08-25T09:13:45;5.45;;;4.72;;
15246;SDS011;7726;48.820;9.248;2022-08-25T09:16:15;4.65;;;4.25;;
15246;SDS011;7726;48.820;9.248;2022-08-25T09:19:06;5.45;;;5.05;;
15246;SDS011;7726;48.820;9.248;2022-08-25T09:21:38;5.20;;;4.80;;
15246;SDS011;7726;48.820;9.248;2022-08-25T09:24:11;6.25;;;5.15;;
15246;SDS011;7726;48.820;9.248;2022-08-25T09:26:44;5.55;;;5.05;;
15246;SDS011;7726;48.820;9.248;2022-08-25T09:29:17;4.50;;;4.10;;
15246;SDS011;7726;48.820;9.248;2022-08-25T09:31:46;4.78;;;4.38;;
15246;SDS011;7726;48.820;9.248;2022-08-25T09:34:16;5.05;;;4.65;;
15246;SDS011;7726;48.820;9.248;2022-08-25T09:36:43;4.55;;;4.20;;
15246;SDS011;7726;48.820;9.248;2022-08-25T09:39:12;5.30;;;4.55;;
15246;SDS011;7726;48.820;9.248;2022-08-25T09:41:42;4.93;;;4.50;;
15246;SDS011;7726;48.820;9.248;2022-08-25T09:44:16;5.47;;;4.90;;
15246;SDS011;7726;48.820;9.248;2022-08-25T09:46:53;6.25;;;4.88;;
15246;SDS011;7726;48.820;9.248;2022-08-25T09:49:21;4.78;;;4.20;;
15246;SDS011;7726;48.820;9.248;2022-08-25T09:51:56;4.35;;;3.95;;
15246;SDS011;7726;48.820;9.248;2022-08-25T09:54:42;4.70;;;4.30;;
15246;SDS011;7726;48.820;9.248;2022-08-25T09:57:09;5.05;;;4.50;;
15246;SDS011;7726;48.820;9.248;2022-08-25T09:59:54;5.18;;;4.68;;
15246;SDS011;7726;48.820;9.248;2022-08-25T10:02:22;4.80;;;4.30;;
15246;SDS011;7726;48.820;9.248;2022-08-25T10:04:50;4.60;;;4.20;;
15246;SDS011;7726;48.820;9.248;2022-08-25T10:07:20;4.95;;;4.50;;
15246;SDS011;7726;48.820;9.248;2022-08-25T10:09:50;5.30;;;4.80;;
15246;SDS011;7726;48.820;9.248;2022-08-25T10:12:18;7.65;;;5.22;;
15246;SDS011;7726;48.820;9.248;2022-08-25T10:14:48;6.65;;;5.38;;
15246;SDS011;7726;48.820;9.248;2022-08-25T10:17:17;4.82;;;4.15;;
15246;SDS011;7726;48.820;9.248;2022-08-25T10:19:49;5.40;;;4.90;;
15246;SDS011;7726;48.820;9.248;2022-08-25T10:22:20;5.45;;;4.95;;
15246;SDS011;7726;48.820;9.248;2022-08-25T10:24:49;8.25;;;4.80;;
15246;SDS011;7726;48.820;9.248;2022-08-25T10:27:18;5.22;;;4.72;;
15246;SDS011;7726;48.820;9.248;2022-08-25T10:29:54;7.82;;;4.53;;
15246;SDS011;7726;48.820;9.248;2022-08-25T10:32:30;4.68;;;4.22;;
15246;SDS011;7726;48.820;9.248;2022-08-25T10:35:01;5.72;;;5.03;;
15246;SDS011;7726;48.820;9.248;2022-08-25T10:37:34;6.20;;;4.30;;
15246;SDS011;7726;48.820;9.248;2022-08-25T10:40:06;4.68;;;4.18;;
15246;SDS011;7726;48.820;9.248;2022-08-25T10:42:35;4.43;;;4.03;;
15246;SDS011;7726;48.820;9.248;2022-08-25T10:45:15;4.30;;;4.00;;
15246;SDS011;7726;48.820;9.248;2022-08-25T10:48:06;6.95;;;4.65;;
15246;SDS011;7726;48.820;9.248;2022-08-25T10:50:37;6.97;;;4.88;;
15246;SDS011;7726;48.820;9.248;2022-08-25T10:53:13;4.78;;;4.25;;
15246;SDS011;7726;48.820;9.248;2022-08-25T10:55:47;4.70;;;4.30;;
15246;SDS011;7726;48.820;9.248;2022-08-25T10:58:17;4.70;;;4.30;;
15246;SDS011;7726;48.820;9.248;2022-08-25T11:00:47;4.50;;;4.10;;
15246;SDS011;7726;48.820;9.248;2022-08-25T11:03:23;4.82;;;4.32;;
15246;SDS011;7726;48.820;9.248;2022-08-25T11:05:58;5.22;;;4.10;;
15246;SDS011;7726;48.820;9.248;2022-08-25T11:08:30;5.22;;;4.00;;
15246;SDS011;7726;48.820;9.248;2022-08-25T11:10:59;4.63;;;3.75;;
15246;SDS011;7726;48.820;9.248;2022-08-25T11:13:30;4.10;;;3.80;;
15246;SDS011;7726;48.820;9.248;2022-08-25T11:16:02;4.28;;;3.90;;
15246;SDS011;7726;48.820;9.248;2022-08-25T11:18:43;4.05;;;3.70;;
15246;SDS011;7726;48.820;9.248;2022-08-25T11:21:11;4.15;;;3.85;;
15246;SDS011;7726;48.820;9.248;2022-08-25T11:23:42;4.03;;;3.55;;
15246;SDS011;7726;48.820;9.248;2022-08-25T11:26:11;4.40;;;4.00;;
15246;SDS011;7726;48.820;9.248;2022-08-25T11:28:42;3.97;;;3.65;;
15246;SDS011;7726;48.820;9.248;2022-08-25T11:31:14;4.45;;;3.60;;
15246;SDS011;7726;48.820;9.248;2022-08-25T11:33:44;5.10;;;3.72;;
15246;SDS011;7726;48.820;9.248;2022-08-25T11:36:13;4.63;;;4.22;;
15246;SDS011;7726;48.820;9.248;2022-08-25T11:38:51;3.85;;;3.55;;
15246;SDS011;7726;48.820;9.248;2022-08-25T11:41:24;4.53;;;4.13;;
15246;SDS011;7726;48.820;9.248;2022-08-25T11:46:39;3.60;;;3.30;;
15246;SDS011;7726;48.820;9.248;2022-08-25T11:49:14;5.45;;;3.42;;
15246;SDS011;7726;48.820;9.248;2022-08-25T11:51:46;3.53;;;3.22;;
15246;SDS011;7726;48.820;9.248;2022-08-25T11:54:15;3.70;;;3.40;;
15246;SDS011;7726;48.820;9.248;2022-08-25T11:56:50;3.80;;;3.50;;
15246;SDS011;7726;48.820;9.248;2022-08-25T12:01:59;3.92;;;3.63;;
15246;SDS011;7726;48.820;9.248;2022-08-25T12:04:32;3.75;;;3.45;;
15246;SDS011;7726;48.820;9.248;2022-08-25T12:10:13;3.47;;;3.17;;
15246;SDS011;7726;48.820;9.248;2022-08-25T12:13:03;3.22;;;3.03;;
15246;SDS011;7726;48.820;9.248;2022-08-25T12:15:52;3.40;;;3.10;;
15246;SDS011;7726;48.820;9.248;2022-08-25T12:21:09;3.22;;;2.92;;
15246;SDS011;7726;48.820;9.248;2022-08-25T12:23:37;3.47;;;3.17;;
15246;SDS011;7726;48.820;9.248;2022-08-25T12:26:08;4.05;;;3.72;;
15246;SDS011;7726;48.820;9.248;2022-08-25T12:28:40;3.00;;;2.80;;
15246;SDS011;7726;48.820;9.248;2022-08-25T12:31:15;6.40;;;3.20;;
15246;SDS011;7726;48.820;9.248;2022-08-25T12:33:46;3.83;;;3.47;;
15246;SDS011;7726;48.820;9.248;2022-08-25T12:36:26;3.75;;;3.47;;
15246;SDS011;7726;48.820;9.248;2022-08-25T12:38:55;2.90;;;2.70;;
15246;SDS011;7726;48.820;9.248;2022-08-25T12:41:33;2.80;;;2.60;;
15246;SDS011;7726;48.820;9.248;2022-08-25T12:44:08;2.78;;;2.53;;
15246;SDS011;7726;48.820;9.248;2022-08-25T12:46:37;3.47;;;2.78;;
15246;SDS011;7726;48.820;9.248;2022-08-25T12:49:10;2.47;;;2.28;;
15246;SDS011;7726;48.820;9.248;2022-08-25T12:51:51;2.45;;;2.35;;
15246;SDS011;7726;48.820;9.248;2022-08-25T12:54:22;3.50;;;2.40;;
15246;SDS011;7726;48.820;9.248;2022-08-25T12:56:51;2.65;;;2.45;;
15246;SDS011;7726;48.820;9.248;2022-08-25T12:59:19;3.20;;;2.45;;
15246;SDS011;7726;48.820;9.248;2022-08-25T13:02:00;2.70;;;2.47;;
15246;SDS011;7726;48.820;9.248;2022-08-25T13:07:22;2.80;;;2.60;;
15246;SDS011;7726;48.820;9.248;2022-08-25T13:10:02;2.80;;;2.60;;
15246;SDS011;7726;48.820;9.248;2022-08-25T13:12:36;2.53;;;2.33;;
15246;SDS011;7726;48.820;9.248;2022-08-25T13:15:06;3.08;;;2.55;;
15246;SDS011;7726;48.820;9.248;2022-08-25T13:17:37;2.92;;;2.72;;
15246;SDS011;7726;48.820;9.248;2022-08-25T13:20:15;2.70;;;2.42;;
15246;SDS011;7726;48.820;9.248;2022-08-25T13:22:45;4.22;;;2.50;;
15246;SDS011;7726;48.820;9.248;2022-08-25T13:25:13;2.72;;;2.53;;
15246;SDS011;7726;48.820;9.248;2022-08-25T13:27:41;2.30;;;2.20;;
15246;SDS011;7726;48.820;9.248;2022-08-25T13:30:15;3.15;;;2.88;;
15246;SDS011;7726;48.820;9.248;2022-08-25T13:32:45;2.70;;;2.60;;
15246;SDS011;7726;48.820;9.248;2022-08-25T13:35:13;2.80;;;2.55;;
15246;SDS011;7726;48.820;9.248;2022-08-25T13:37:41;2.80;;;2.60;;
15246;SDS011;7726;48.820;9.248;2022-08-25T13:40:10;3.40;;;2.55;;
15246;SDS011;7726;48.820;9.248;2022-08-25T13:42:41;2.97;;;2.63;;
15246;SDS011;7726;48.820;9.248;2022-08-25T13:45:10;2.30;;;2.20;;
15246;SDS011;7726;48.820;9.248;2022-08-25T13:47:40;2.47;;;2.33;;
15246;SDS011;7726;48.820;9.248;2022-08-25T13:50:14;2.63;;;2.38;;
15246;SDS011;7726;48.820;9.248;2022-08-25T13:52:43;2.80;;;2.60;;
15246;SDS011;7726;48.820;9.248;2022-08-25T13:55:17;3.33;;;2.92;;
15246;SDS011;7726;48.820;9.248;2022-08-25T13:57:45;3.30;;;3.10;;
15246;SDS011;7726;48.820;9.248;2022-08-25T14:00:13;3.55;;;3.20;;
15246;SDS011;7726;48.820;9.248;2022-08-25T14:02:51;2.85;;;2.65;;
15246;SDS011;7726;48.820;9.248;2022-08-25T14:05:28;2.80;;;2.60;;
15246;SDS011;7726;48.820;9.248;2022-08-25T14:07:57;3.28;;;2.90;;
15246;SDS011;7726;48.820;9.248;2022-08-25T14:10:33;2.85;;;2.50;;
15246;SDS011;7726;48.820;9.248;2022-08-25T14:13:08;2.90;;;2.70;;
15246;SDS011;7726;48.820;9.248;2022-08-25T14:15:35;2.55;;;2.38;;
15246;SDS011;7726;48.820;9.248;2022-08-25T14:18:03;2.92;;;2.72;;
15246;SDS011;7726;48.820;9.248;2022-08-25T14:20:32;2.63;;;2.53;;
15246;SDS011;7726;48.820;9.248;2022-08-25T14:23:02;3.95;;;2.97;;
15246;SDS011;7726;48.820;9.248;2022-08-25T14:25:29;3.30;;;2.60;;
15246;SDS011;7726;48.820;9.248;2022-08-25T14:27:59;3.08;;;2.65;;
15246;SDS011;7726;48.820;9.248;2022-08-25T14:30:27;2.97;;;2.67;;
15246;SDS011;7726;48.820;9.248;2022-08-25T14:32:54;2.92;;;2.65;;
15246;SDS011;7726;48.820;9.248;2022-08-25T14:35:22;3.78;;;2.45;;
15246;SDS011;7726;48.820;9.248;2022-08-25T14:37:49;3.20;;;2.88;;
15246;SDS011;7726;48.820;9.248;2022-08-25T14:40:17;2.80;;;2.60;;
15246;SDS011;7726;48.820;9.248;2022-08-25T14:42:44;2.80;;;2.60;;
15246;SDS011;7726;48.820;9.248;2022-08-25T14:45:14;2.95;;;2.70;;
15246;SDS011;7726;48.820;9.248;2022-08-25T14:47:41;2.78;;;2.58;;
15246;SDS011;7726;48.820;9.248;2022-08-25T14:50:08;2.75;;;2.55;;
15246;SDS011;7726;48.820;9.248;2022-08-25T14:52:36;2.70;;;2.50;;
15246;SDS011;7726;48.820;9.248;2022-08-25T14:55:03;2.90;;;2.70;;
15246;SDS011;7726;48.820;9.248;2022-08-25T14:57:31;3.03;;;2.70;;
15246;SDS011;7726;48.820;9.248;2022-08-25T14:59:59;3.25;;;2.97;;
15246;SDS011;7726;48.820;9.248;2022-08-25T15:02:28;3.45;;;3.20;;
15246;SDS011;7726;48.820;9.248;2022-08-25T15:04:57;3.30;;;2.80;;
15246;SDS011;7726;48.820;9.248;2022-08-25T15:07:24;2.95;;;2.75;;
15246;SDS011;7726;48.820;9.248;2022-08-25T15:10:09;2.72;;;2.50;;
15246;SDS011;7726;48.820;9.248;2022-08-25T15:12:37;3.00;;;2.72;;
15246;SDS011;7726;48.820;9.248;2022-08-25T15:15:04;3.25;;;3.03;;
15246;SDS011;7726;48.820;9.248;2022-08-25T15:17:33;2.92;;;2.72;;
15246;SDS011;7726;48.820;9.248;2022-08-25T15:20:00;3.38;;;3.17;;
15246;SDS011;7726;48.820;9.248;2022-08-25T15:22:27;4.32;;;3.00;;
15246;SDS011;7726;48.820;9.248;2022-08-25T15:24:54;2.92;;;2.72;;
15246;SDS011;7726;48.820;9.248;2022-08-25T15:27:22;2.63;;;2.42;;
15246;SDS011;7726;48.820;9.248;2022-08-25T15:29:49;3.10;;;2.65;;